sensor_id;sensor_type;location;lat;lon;timestamp;P1;durP1;ratioP1;P2;durP2;ratioP2
44169;SDS011;29836;52.286;9.576;2022-11-20T00:02:24;10.65;;;3.67;;
44169;SDS011;29836;52.286;9.576;2022-11-20T00:04:50;10.57;;;4.05;;
44169;SDS011;29836;52.286;9.576;2022-11-20T00:07:16;8.95;;;4.15;;
44169;SDS011;29836;52.286;9.576;2022-11-20T00:09:41;13.77;;;4.43;;
44169;SDS011;29836;52.286;9.576;2022-11-20T00:12:07;12.07;;;5.97;;
44169;SDS011;29836;52.286;9.576;2022-11-20T00:14:32;12.05;;;4.78;;
44169;SDS011;29836;52.286;9.576;2022-11-20T00:16:58;9.63;;;3.92;;
44169;SDS011;29836;52.286;9.576;2022-11-20T00:19:24;8.27;;;3.35;;
44169;SDS011;29836;52.286;9.576;2022-11-20T00:21:49;12.52;;;3.90;;
44169;SDS011;29836;52.286;9.576;2022-11-20T00:24:18;8.43;;;3.25;;
44169;SDS011;29836;52.286;9.576;2022-11-20T00:26:44;7.70;;;3.70;;
44169;SDS011;29836;52.286;9.576;2022-11-20T00:29:09;7.50;;;3.72;;
44169;SDS011;29836;52.286;9.576;2022-11-20T00:31:35;8.82;;;4.72;;
44169;SDS011;29836;52.286;9.576;2022-11-20T00:34:01;7.43;;;3.30;;
44169;SDS011;29836;52.286;9.576;2022-11-20T00:36:27;6.60;;;3.22;;
44169;SDS011;29836;52.286;9.576;2022-11-20T00:38:57;7.25;;;3.05;;
44169;SDS011;29836;52.286;9.576;2022-11-20T00:41:23;6.88;;;3.42;;
44169;SDS011;29836;52.286;9.576;2022-11-20T00:43:51;12.00;;;3.97;;
44169;SDS011;29836;52.286;9.576;2022-11-20T00:46:18;5.68;;;2.83;;
44169;SDS011;29836;52.286;9.576;2022-11-20T00:48:46;15.60;;;3.28;;
44169;SDS011;29836;52.286;9.576;2022-11-20T00:51:13;4.88;;;2.55;;
44169;SDS011;29836;52.286;9.576;2022-11-20T00:53:41;4.32;;;2.33;;
44169;SDS011;29836;52.286;9.576;2022-11-20T00:56:07;6.40;;;2.47;;
44169;SDS011;29836;52.286;9.576;2022-11-20T00:58:38;5.00;;;2.00;;
44169;SDS011;29836;52.286;9.576;2022-11-20T01:03:33;4.10;;;2.80;;
44169;SDS011;29836;52.286;9.576;2022-11-20T01:06:04;8.90;;;1.98;;
44169;SDS011;29836;52.286;9.576;2022-11-20T01:08:32;3.90;;;1.85;;
44169;SDS011;29836;52.286;9.576;2022-11-20T01:11:00;11.15;;;2.13;;
44169;SDS011;29836;52.286;9.576;2022-11-20T01:13:27;4.70;;;2.33;;
44169;SDS011;29836;52.286;9.576;2022-11-20T01:16:10;3.03;;;1.60;;
44169;SDS011;29836;52.286;9.576;2022-11-20T01:18:36;4.20;;;1.50;;
44169;SDS011;29836;52.286;9.576;2022-11-20T01:21:06;6.55;;;2.15;;
44169;SDS011;29836;52.286;9.576;2022-11-20T01:23:34;5.38;;;1.80;;
44169;SDS011;29836;52.286;9.576;2022-11-20T01:26:02;3.08;;;1.73;;
44169;SDS011;29836;52.286;9.576;2022-11-20T01:28:30;3.40;;;1.55;;
44169;SDS011;29836;52.286;9.576;2022-11-20T01:30:56;4.85;;;2.13;;
44169;SDS011;29836;52.286;9.576;2022-11-20T01:33:22;2.92;;;1.70;;
44169;SDS011;29836;52.286;9.576;2022-11-20T01:35:47;2.95;;;1.65;;
44169;SDS011;29836;52.286;9.576;2022-11-20T01:38:14;2.38;;;1.65;;
44169;SDS011;29836;52.286;9.576;2022-11-20T01:40:40;2.78;;;1.42;;
44169;SDS011;29836;52.286;9.576;2022-11-20T01:43:12;3.20;;;1.60;;
44169;SDS011;29836;52.286;9.576;2022-11-20T01:45:55;4.57;;;1.65;;
44169;SDS011;29836;52.286;9.576;2022-11-20T01:48:24;2.22;;;1.40;;
44169;SDS011;29836;52.286;9.576;2022-11-20T01:50:53;2.78;;;1.58;;
44169;SDS011;29836;52.286;9.576;2022-11-20T01:53:20;1.60;;;1.20;;
44169;SDS011;29836;52.286;9.576;2022-11-20T01:55:51;1.75;;;1.27;;
44169;SDS011;29836;52.286;9.576;2022-11-20T01:58:20;1.95;;;1.33;;
44169;SDS011;29836;52.286;9.576;2022-11-20T02:00:53;2.05;;;1.00;;
44169;SDS011;29836;52.286;9.576;2022-11-20T02:03:19;1.52;;;0.88;;
44169;SDS011;29836;52.286;9.576;2022-11-20T02:08:20;4.93;;;1.90;;
44169;SDS011;29836;52.286;9.576;2022-11-20T02:10:48;1.55;;;1.25;;
44169;SDS011;29836;52.286;9.576;2022-11-20T02:13:13;1.55;;;1.02;;
44169;SDS011;29836;52.286;9.576;2022-11-20T02:15:58;1.50;;;1.02;;
44169;SDS011;29836;52.286;9.576;2022-11-20T02:18:24;2.05;;;1.00;;
44169;SDS011;29836;52.286;9.576;2022-11-20T02:20:52;1.83;;;1.00;;
44169;SDS011;29836;52.286;9.576;2022-11-20T02:23:22;2.83;;;1.27;;
44169;SDS011;29836;52.286;9.576;2022-11-20T02:25:48;1.88;;;0.93;;
44169;SDS011;29836;52.286;9.576;2022-11-20T02:28:16;2.72;;;1.42;;
44169;SDS011;29836;52.286;9.576;2022-11-20T02:30:43;2.55;;;1.02;;
44169;SDS011;29836;52.286;9.576;2022-11-20T02:33:08;2.55;;;1.27;;
44169;SDS011;29836;52.286;9.576;2022-11-20T02:38:00;3.15;;;1.38;;
44169;SDS011;29836;52.286;9.576;2022-11-20T02:40:27;3.40;;;1.17;;
44169;SDS011;29836;52.286;9.576;2022-11-20T02:42:56;2.75;;;1.48;;
44169;SDS011;29836;52.286;9.576;2022-11-20T02:45:23;3.60;;;1.20;;
44169;SDS011;29836;52.286;9.576;2022-11-20T02:47:49;2.20;;;1.13;;
44169;SDS011;29836;52.286;9.576;2022-11-20T02:50:15;3.95;;;2.08;;
44169;SDS011;29836;52.286;9.576;2022-11-20T02:52:41;3.78;;;1.42;;
44169;SDS011;29836;52.286;9.576;2022-11-20T02:55:07;2.88;;;1.63;;
44169;SDS011;29836;52.286;9.576;2022-11-20T02:57:32;4.68;;;1.55;;
44169;SDS011;29836;52.286;9.576;2022-11-20T02:59:58;4.15;;;1.67;;
44169;SDS011;29836;52.286;9.576;2022-11-20T03:02:24;3.63;;;1.83;;
44169;SDS011;29836;52.286;9.576;2022-11-20T03:04:49;7.95;;;2.00;;
44169;SDS011;29836;52.286;9.576;2022-11-20T03:07:15;2.85;;;1.98;;
44169;SDS011;29836;52.286;9.576;2022-11-20T03:09:40;3.63;;;2.08;;
44169;SDS011;29836;52.286;9.576;2022-11-20T03:12:06;3.72;;;1.48;;
44169;SDS011;29836;52.286;9.576;2022-11-20T03:14:32;4.75;;;1.42;;
44169;SDS011;29836;52.286;9.576;2022-11-20T03:16:57;8.18;;;2.33;;
44169;SDS011;29836;52.286;9.576;2022-11-20T03:19:23;4.50;;;2.15;;
44169;SDS011;29836;52.286;9.576;2022-11-20T03:21:49;3.72;;;1.73;;
44169;SDS011;29836;52.286;9.576;2022-11-20T03:24:14;3.35;;;2.08;;
44169;SDS011;29836;52.286;9.576;2022-11-20T03:26:40;2.45;;;1.33;;
44169;SDS011;29836;52.286;9.576;2022-11-20T03:29:06;3.88;;;1.75;;
44169;SDS011;29836;52.286;9.576;2022-11-20T03:31:36;2.53;;;1.27;;
44169;SDS011;29836;52.286;9.576;2022-11-20T03:34:05;3.53;;;1.55;;
44169;SDS011;29836;52.286;9.576;2022-11-20T03:36:32;2.75;;;1.88;;
44169;SDS011;29836;52.286;9.576;2022-11-20T03:38:58;3.10;;;2.13;;
44169;SDS011;29836;52.286;9.576;2022-11-20T03:41:25;4.45;;;2.13;;
44169;SDS011;29836;52.286;9.576;2022-11-20T03:44:02;5.30;;;3.20;;
44169;SDS011;29836;52.286;9.576;2022-11-20T03:46:29;8.05;;;3.30;;
44169;SDS011;29836;52.286;9.576;2022-11-20T03:48:55;4.68;;;2.00;;
44169;SDS011;29836;52.286;9.576;2022-11-20T03:51:22;5.63;;;2.90;;
44169;SDS011;29836;52.286;9.576;2022-11-20T03:53:53;7.13;;;3.25;;
44169;SDS011;29836;52.286;9.576;2022-11-20T03:56:23;7.32;;;3.20;;
44169;SDS011;29836;52.286;9.576;2022-11-20T03:58:50;8.43;;;3.90;;
44169;SDS011;29836;52.286;9.576;2022-11-20T04:01:20;8.60;;;3.78;;
44169;SDS011;29836;52.286;9.576;2022-11-20T04:03:48;9.98;;;4.10;;
44169;SDS011;29836;52.286;9.576;2022-11-20T04:06:17;9.07;;;3.45;;
44169;SDS011;29836;52.286;9.576;2022-11-20T04:08:44;6.97;;;3.58;;
44169;SDS011;29836;52.286;9.576;2022-11-20T04:11:21;7.03;;;3.25;;
44169;SDS011;29836;52.286;9.576;2022-11-20T04:13:58;7.00;;;2.88;;
44169;SDS011;29836;52.286;9.576;2022-11-20T04:16:26;6.68;;;3.55;;
44169;SDS011;29836;52.286;9.576;2022-11-20T04:18:54;7.95;;;3.78;;
44169;SDS011;29836;52.286;9.576;2022-11-20T04:21:22;7.93;;;4.40;;
44169;SDS011;29836;52.286;9.576;2022-11-20T04:23:49;5.40;;;3.13;;
44169;SDS011;29836;52.286;9.576;2022-11-20T04:26:15;12.05;;;2.97;;
44169;SDS011;29836;52.286;9.576;2022-11-20T04:28:41;8.52;;;4.50;;
44169;SDS011;29836;52.286;9.576;2022-11-20T04:31:07;9.65;;;4.53;;
44169;SDS011;29836;52.286;9.576;2022-11-20T04:33:35;6.93;;;3.80;;
44169;SDS011;29836;52.286;9.576;2022-11-20T04:36:05;7.78;;;3.13;;
44169;SDS011;29836;52.286;9.576;2022-11-20T04:38:38;6.63;;;3.60;;
44169;SDS011;29836;52.286;9.576;2022-11-20T04:41:05;8.20;;;3.55;;
44169;SDS011;29836;52.286;9.576;2022-11-20T04:43:31;7.72;;;4.22;;
44169;SDS011;29836;52.286;9.576;2022-11-20T04:45:58;8.95;;;4.03;;
44169;SDS011;29836;52.286;9.576;2022-11-20T04:48:25;8.90;;;3.58;;
44169;SDS011;29836;52.286;9.576;2022-11-20T04:50:51;7.05;;;3.20;;
44169;SDS011;29836;52.286;9.576;2022-11-20T04:53:18;5.18;;;2.63;;
44169;SDS011;29836;52.286;9.576;2022-11-20T04:55:44;7.57;;;3.25;;
44169;SDS011;29836;52.286;9.576;2022-11-20T04:58:10;5.78;;;2.88;;
44169;SDS011;29836;52.286;9.576;2022-11-20T05:00:36;7.25;;;2.63;;
44169;SDS011;29836;52.286;9.576;2022-11-20T05:03:02;8.32;;;3.53;;
44169;SDS011;29836;52.286;9.576;2022-11-20T05:05:28;4.45;;;2.60;;
44169;SDS011;29836;52.286;9.576;2022-11-20T05:07:55;6.60;;;2.80;;
44169;SDS011;29836;52.286;9.576;2022-11-20T05:10:22;5.55;;;2.83;;
44169;SDS011;29836;52.286;9.576;2022-11-20T05:12:48;4.07;;;2.47;;
44169;SDS011;29836;52.286;9.576;2022-11-20T05:15:14;3.97;;;2.25;;
44169;SDS011;29836;52.286;9.576;2022-11-20T05:17:39;4.32;;;2.15;;
44169;SDS011;29836;52.286;9.576;2022-11-20T05:20:05;3.95;;;1.83;;
44169;SDS011;29836;52.286;9.576;2022-11-20T05:22:31;5.30;;;2.17;;
44169;SDS011;29836;52.286;9.576;2022-11-20T05:24:57;5.05;;;2.15;;
44169;SDS011;29836;52.286;9.576;2022-11-20T05:27:22;9.15;;;2.90;;
44169;SDS011;29836;52.286;9.576;2022-11-20T05:29:48;5.25;;;2.10;;
44169;SDS011;29836;52.286;9.576;2022-11-20T05:32:13;4.97;;;2.33;;
44169;SDS011;29836;52.286;9.576;2022-11-20T05:34:39;2.35;;;1.42;;
44169;SDS011;29836;52.286;9.576;2022-11-20T05:37:05;4.10;;;2.13;;
44169;SDS011;29836;52.286;9.576;2022-11-20T05:39:30;3.72;;;1.88;;
44169;SDS011;29836;52.286;9.576;2022-11-20T05:41:56;3.67;;;2.10;;
44169;SDS011;29836;52.286;9.576;2022-11-20T05:44:40;5.32;;;3.05;;
44169;SDS011;29836;52.286;9.576;2022-11-20T05:47:05;5.60;;;2.33;;
44169;SDS011;29836;52.286;9.576;2022-11-20T05:49:31;4.25;;;2.00;;
44169;SDS011;29836;52.286;9.576;2022-11-20T05:51:57;3.85;;;2.38;;
44169;SDS011;29836;52.286;9.576;2022-11-20T05:54:23;8.68;;;3.47;;
44169;SDS011;29836;52.286;9.576;2022-11-20T05:56:48;8.00;;;3.55;;
44169;SDS011;29836;52.286;9.576;2022-11-20T05:59:14;6.53;;;3.75;;
44169;SDS011;29836;52.286;9.576;2022-11-20T06:01:40;6.88;;;3.15;;
44169;SDS011;29836;52.286;9.576;2022-11-20T06:04:05;7.40;;;3.60;;
44169;SDS011;29836;52.286;9.576;2022-11-20T06:06:31;9.15;;;3.65;;
44169;SDS011;29836;52.286;9.576;2022-11-20T06:08:57;7.82;;;4.40;;
44169;SDS011;29836;52.286;9.576;2022-11-20T06:11:24;6.32;;;3.45;;
44169;SDS011;29836;52.286;9.576;2022-11-20T06:13:50;9.20;;;3.00;;
44169;SDS011;29836;52.286;9.576;2022-11-20T06:16:16;7.97;;;3.30;;
44169;SDS011;29836;52.286;9.576;2022-11-20T06:18:43;7.07;;;2.47;;
44169;SDS011;29836;52.286;9.576;2022-11-20T06:21:11;6.85;;;4.18;;
44169;SDS011;29836;52.286;9.576;2022-11-20T06:23:38;7.68;;;3.15;;
44169;SDS011;29836;52.286;9.576;2022-11-20T06:26:05;5.88;;;3.38;;
44169;SDS011;29836;52.286;9.576;2022-11-20T06:28:35;5.53;;;2.97;;
44169;SDS011;29836;52.286;9.576;2022-11-20T06:31:01;5.18;;;2.78;;
44169;SDS011;29836;52.286;9.576;2022-11-20T06:33:27;6.60;;;2.90;;
44169;SDS011;29836;52.286;9.576;2022-11-20T06:35:55;4.93;;;2.67;;
44169;SDS011;29836;52.286;9.576;2022-11-20T06:38:22;5.13;;;2.97;;
44169;SDS011;29836;52.286;9.576;2022-11-20T06:40:48;7.72;;;3.75;;
44169;SDS011;29836;52.286;9.576;2022-11-20T06:43:14;11.50;;;3.53;;
44169;SDS011;29836;52.286;9.576;2022-11-20T06:45:39;9.07;;;4.47;;
44169;SDS011;29836;52.286;9.576;2022-11-20T06:48:05;9.85;;;3.65;;
44169;SDS011;29836;52.286;9.576;2022-11-20T06:50:31;8.40;;;3.55;;
44169;SDS011;29836;52.286;9.576;2022-11-20T06:52:56;9.77;;;4.07;;
44169;SDS011;29836;52.286;9.576;2022-11-20T06:55:26;7.25;;;3.55;;
44169;SDS011;29836;52.286;9.576;2022-11-20T06:57:51;10.48;;;4.85;;
44169;SDS011;29836;52.286;9.576;2022-11-20T07:00:17;9.05;;;3.40;;
44169;SDS011;29836;52.286;9.576;2022-11-20T07:02:43;5.80;;;3.08;;
44169;SDS011;29836;52.286;9.576;2022-11-20T07:05:08;5.35;;;2.63;;
44169;SDS011;29836;52.286;9.576;2022-11-20T07:07:35;4.38;;;2.08;;
44169;SDS011;29836;52.286;9.576;2022-11-20T07:10:01;6.93;;;3.42;;
44169;SDS011;29836;52.286;9.576;2022-11-20T07:12:26;9.35;;;3.13;;
44169;SDS011;29836;52.286;9.576;2022-11-20T07:14:52;6.70;;;3.10;;
44169;SDS011;29836;52.286;9.576;2022-11-20T07:17:18;4.15;;;2.17;;
44169;SDS011;29836;52.286;9.576;2022-11-20T07:19:43;5.07;;;2.15;;
44169;SDS011;29836;52.286;9.576;2022-11-20T07:22:09;5.43;;;2.40;;
44169;SDS011;29836;52.286;9.576;2022-11-20T07:24:34;6.68;;;2.35;;
44169;SDS011;29836;52.286;9.576;2022-11-20T07:27:00;5.50;;;2.95;;
44169;SDS011;29836;52.286;9.576;2022-11-20T07:29:26;4.90;;;2.75;;
44169;SDS011;29836;52.286;9.576;2022-11-20T07:31:51;6.82;;;2.15;;
44169;SDS011;29836;52.286;9.576;2022-11-20T07:34:17;4.18;;;2.50;;
44169;SDS011;29836;52.286;9.576;2022-11-20T07:36:42;7.93;;;4.03;;
44169;SDS011;29836;52.286;9.576;2022-11-20T07:39:08;9.45;;;3.70;;
44169;SDS011;29836;52.286;9.576;2022-11-20T07:41:34;6.13;;;2.92;;
44169;SDS011;29836;52.286;9.576;2022-11-20T07:43:59;7.65;;;3.45;;
44169;SDS011;29836;52.286;9.576;2022-11-20T07:46:26;5.43;;;2.75;;
44169;SDS011;29836;52.286;9.576;2022-11-20T07:48:51;6.57;;;3.15;;
44169;SDS011;29836;52.286;9.576;2022-11-20T07:51:17;7.68;;;3.53;;
44169;SDS011;29836;52.286;9.576;2022-11-20T07:53:43;4.93;;;2.58;;
44169;SDS011;29836;52.286;9.576;2022-11-20T07:56:08;4.45;;;2.55;;
44169;SDS011;29836;52.286;9.576;2022-11-20T07:58:34;6.65;;;3.03;;
44169;SDS011;29836;52.286;9.576;2022-11-20T08:01:06;7.28;;;2.78;;
44169;SDS011;29836;52.286;9.576;2022-11-20T08:03:33;5.55;;;3.00;;
44169;SDS011;29836;52.286;9.576;2022-11-20T08:06:00;7.28;;;3.40;;
44169;SDS011;29836;52.286;9.576;2022-11-20T08:08:26;6.78;;;2.95;;
44169;SDS011;29836;52.286;9.576;2022-11-20T08:10:52;4.25;;;2.83;;
44169;SDS011;29836;52.286;9.576;2022-11-20T08:13:38;6.32;;;3.00;;
44169;SDS011;29836;52.286;9.576;2022-11-20T08:16:22;10.45;;;5.22;;
44169;SDS011;29836;52.286;9.576;2022-11-20T08:18:47;11.00;;;3.72;;
44169;SDS011;29836;52.286;9.576;2022-11-20T08:21:13;8.90;;;4.05;;
44169;SDS011;29836;52.286;9.576;2022-11-20T08:23:38;27.48;;;12.70;;
44169;SDS011;29836;52.286;9.576;2022-11-20T08:26:04;14.57;;;6.22;;
44169;SDS011;29836;52.286;9.576;2022-11-20T08:28:29;10.60;;;5.47;;
44169;SDS011;29836;52.286;9.576;2022-11-20T08:31:02;9.77;;;4.00;;
44169;SDS011;29836;52.286;9.576;2022-11-20T08:33:28;11.40;;;5.35;;
44169;SDS011;29836;52.286;9.576;2022-11-20T08:35:58;8.45;;;5.18;;
44169;SDS011;29836;52.286;9.576;2022-11-20T08:38:25;10.65;;;4.53;;
44169;SDS011;29836;52.286;9.576;2022-11-20T08:40:51;9.43;;;4.55;;
44169;SDS011;29836;52.286;9.576;2022-11-20T08:43:35;8.43;;;4.63;;
44169;SDS011;29836;52.286;9.576;2022-11-20T08:46:01;6.25;;;3.95;;
44169;SDS011;29836;52.286;9.576;2022-11-20T08:48:26;8.00;;;4.38;;
44169;SDS011;29836;52.286;9.576;2022-11-20T08:50:52;6.63;;;4.18;;
44169;SDS011;29836;52.286;9.576;2022-11-20T08:53:17;9.68;;;4.78;;
44169;SDS011;29836;52.286;9.576;2022-11-20T08:55:43;8.35;;;4.90;;
44169;SDS011;29836;52.286;9.576;2022-11-20T08:58:09;8.75;;;4.13;;
44169;SDS011;29836;52.286;9.576;2022-11-20T09:00:34;9.35;;;4.88;;
44169;SDS011;29836;52.286;9.576;2022-11-20T09:03:00;8.45;;;4.22;;
44169;SDS011;29836;52.286;9.576;2022-11-20T09:05:26;8.55;;;3.75;;
44169;SDS011;29836;52.286;9.576;2022-11-20T09:07:55;7.97;;;3.92;;
44169;SDS011;29836;52.286;9.576;2022-11-20T09:10:24;6.70;;;4.30;;
44169;SDS011;29836;52.286;9.576;2022-11-20T09:12:53;9.70;;;4.15;;
44169;SDS011;29836;52.286;9.576;2022-11-20T09:15:20;7.47;;;3.72;;
44169;SDS011;29836;52.286;9.576;2022-11-20T09:17:58;8.45;;;4.45;;
44169;SDS011;29836;52.286;9.576;2022-11-20T09:20:26;8.75;;;3.85;;
44169;SDS011;29836;52.286;9.576;2022-11-20T09:22:54;6.97;;;3.92;;
44169;SDS011;29836;52.286;9.576;2022-11-20T09:25:19;9.07;;;3.53;;
44169;SDS011;29836;52.286;9.576;2022-11-20T09:27:45;5.85;;;3.40;;
44169;SDS011;29836;52.286;9.576;2022-11-20T09:30:12;13.57;;;6.32;;
44169;SDS011;29836;52.286;9.576;2022-11-20T09:32:38;10.65;;;5.80;;
44169;SDS011;29836;52.286;9.576;2022-11-20T09:35:05;10.55;;;5.03;;
44169;SDS011;29836;52.286;9.576;2022-11-20T09:37:30;15.88;;;5.78;;
44169;SDS011;29836;52.286;9.576;2022-11-20T09:39:56;15.90;;;8.40;;
44169;SDS011;29836;52.286;9.576;2022-11-20T09:45:18;12.98;;;6.18;;
44169;SDS011;29836;52.286;9.576;2022-11-20T09:48:08;10.35;;;5.80;;
44169;SDS011;29836;52.286;9.576;2022-11-20T09:50:42;14.60;;;6.80;;
44169;SDS011;29836;52.286;9.576;2022-11-20T09:55:46;7.05;;;2.97;;
44169;SDS011;29836;52.286;9.576;2022-11-20T09:58:33;5.25;;;2.75;;
44169;SDS011;29836;52.286;9.576;2022-11-20T10:01:09;6.55;;;3.25;;
44169;SDS011;29836;52.286;9.576;2022-11-20T10:06:23;8.13;;;3.38;;
44169;SDS011;29836;52.286;9.576;2022-11-20T10:11:39;5.28;;;3.08;;
44169;SDS011;29836;52.286;9.576;2022-11-20T10:14:16;6.85;;;3.10;;
44169;SDS011;29836;52.286;9.576;2022-11-20T10:17:22;5.90;;;3.03;;
44169;SDS011;29836;52.286;9.576;2022-11-20T10:26:04;5.32;;;3.53;;
44169;SDS011;29836;52.286;9.576;2022-11-20T10:28:48;7.05;;;3.67;;
44169;SDS011;29836;52.286;9.576;2022-11-20T10:31:36;4.90;;;2.70;;
44169;SDS011;29836;52.286;9.576;2022-11-20T10:34:12;5.65;;;2.78;;
44169;SDS011;29836;52.286;9.576;2022-11-20T10:36:58;5.60;;;2.92;;
44169;SDS011;29836;52.286;9.576;2022-11-20T10:39:35;6.30;;;2.85;;
44169;SDS011;29836;52.286;9.576;2022-11-20T10:42:08;5.40;;;3.05;;
44169;SDS011;29836;52.286;9.576;2022-11-20T10:44:39;7.32;;;2.72;;
44169;SDS011;29836;52.286;9.576;2022-11-20T10:47:30;5.88;;;2.80;;
44169;SDS011;29836;52.286;9.576;2022-11-20T10:49:57;5.60;;;2.70;;
44169;SDS011;29836;52.286;9.576;2022-11-20T10:52:37;6.30;;;2.97;;
44169;SDS011;29836;52.286;9.576;2022-11-20T11:00:37;7.78;;;3.13;;
44169;SDS011;29836;52.286;9.576;2022-11-20T11:03:07;5.78;;;3.53;;
44169;SDS011;29836;52.286;9.576;2022-11-20T11:05:50;6.97;;;3.80;;
44169;SDS011;29836;52.286;9.576;2022-11-20T11:08:21;5.78;;;2.88;;
44169;SDS011;29836;52.286;9.576;2022-11-20T11:11:15;7.80;;;2.50;;
44169;SDS011;29836;52.286;9.576;2022-11-20T11:13:48;5.72;;;3.10;;
44169;SDS011;29836;52.286;9.576;2022-11-20T11:16:32;8.65;;;3.10;;
44169;SDS011;29836;52.286;9.576;2022-11-20T11:19:05;5.90;;;3.08;;
44169;SDS011;29836;52.286;9.576;2022-11-20T11:21:38;6.05;;;3.00;;
44169;SDS011;29836;52.286;9.576;2022-11-20T11:24:14;6.70;;;2.97;;
44169;SDS011;29836;52.286;9.576;2022-11-20T11:26:58;6.70;;;2.58;;
44169;SDS011;29836;52.286;9.576;2022-11-20T11:29:32;5.38;;;3.00;;
44169;SDS011;29836;52.286;9.576;2022-11-20T11:32:31;4.40;;;2.40;;
44169;SDS011;29836;52.286;9.576;2022-11-20T11:35:04;6.57;;;2.47;;
44169;SDS011;29836;52.286;9.576;2022-11-20T11:37:38;6.70;;;3.42;;
44169;SDS011;29836;52.286;9.576;2022-11-20T11:40:04;8.65;;;3.00;;
44169;SDS011;29836;52.286;9.576;2022-11-20T11:42:31;7.13;;;3.33;;
44169;SDS011;29836;52.286;9.576;2022-11-20T11:44:58;6.70;;;3.17;;
44169;SDS011;29836;52.286;9.576;2022-11-20T11:53:20;8.32;;;3.30;;
44169;SDS011;29836;52.286;9.576;2022-11-20T12:00:47;6.82;;;2.97;;
44169;SDS011;29836;52.286;9.576;2022-11-20T12:03:22;5.85;;;3.70;;
44169;SDS011;29836;52.286;9.576;2022-11-20T12:06:01;6.85;;;3.28;;
44169;SDS011;29836;52.286;9.576;2022-11-20T12:11:20;6.28;;;3.40;;
44169;SDS011;29836;52.286;9.576;2022-11-20T12:14:23;4.90;;;2.55;;
44169;SDS011;29836;52.286;9.576;2022-11-20T12:17:00;7.13;;;3.10;;
44169;SDS011;29836;52.286;9.576;2022-11-20T12:19:29;5.28;;;2.95;;
44169;SDS011;29836;52.286;9.576;2022-11-20T12:27:02;9.98;;;4.30;;
44169;SDS011;29836;52.286;9.576;2022-11-20T12:50:14;4.38;;;2.65;;
44169;SDS011;29836;52.286;9.576;2022-11-20T12:58:15;5.70;;;3.47;;
44169;SDS011;29836;52.286;9.576;2022-11-20T13:00:49;5.78;;;2.92;;
44169;SDS011;29836;52.286;9.576;2022-11-20T13:03:31;5.15;;;2.42;;
44169;SDS011;29836;52.286;9.576;2022-11-20T13:06:15;6.03;;;2.70;;
44169;SDS011;29836;52.286;9.576;2022-11-20T13:08:55;7.78;;;3.22;;
44169;SDS011;29836;52.286;9.576;2022-11-20T13:11:26;6.82;;;3.45;;
44169;SDS011;29836;52.286;9.576;2022-11-20T13:18:55;7.18;;;3.08;;
44169;SDS011;29836;52.286;9.576;2022-11-20T13:21:21;7.72;;;4.30;;
44169;SDS011;29836;52.286;9.576;2022-11-20T13:26:44;4.72;;;2.53;;
44169;SDS011;29836;52.286;9.576;2022-11-20T13:29:17;5.15;;;2.75;;
44169;SDS011;29836;52.286;9.576;2022-11-20T13:31:44;6.15;;;3.42;;
44169;SDS011;29836;52.286;9.576;2022-11-20T13:34:25;9.30;;;3.63;;
44169;SDS011;29836;52.286;9.576;2022-11-20T13:36:53;9.20;;;4.10;;
44169;SDS011;29836;52.286;9.576;2022-11-20T13:39:24;6.93;;;3.85;;
44169;SDS011;29836;52.286;9.576;2022-11-20T13:41:59;9.50;;;4.63;;
44169;SDS011;29836;52.286;9.576;2022-11-20T13:44:44;8.68;;;3.50;;
44169;SDS011;29836;52.286;9.576;2022-11-20T13:47:25;6.78;;;4.25;;
44169;SDS011;29836;52.286;9.576;2022-11-20T13:49:52;10.50;;;5.38;;
44169;SDS011;29836;52.286;9.576;2022-11-20T13:57:59;11.20;;;5.00;;
44169;SDS011;29836;52.286;9.576;2022-11-20T14:00:28;7.32;;;3.55;;
44169;SDS011;29836;52.286;9.576;2022-11-20T14:05:39;9.70;;;4.07;;
44169;SDS011;29836;52.286;9.576;2022-11-20T14:08:16;9.57;;;3.83;;
44169;SDS011;29836;52.286;9.576;2022-11-20T14:11:30;8.80;;;3.83;;
44169;SDS011;29836;52.286;9.576;2022-11-20T14:16:27;7.88;;;3.90;;
44169;SDS011;29836;52.286;9.576;2022-11-20T14:18:55;9.13;;;3.88;;
44169;SDS011;29836;52.286;9.576;2022-11-20T14:21:29;7.90;;;3.92;;
44169;SDS011;29836;52.286;9.576;2022-11-20T14:24:04;6.10;;;3.38;;
44169;SDS011;29836;52.286;9.576;2022-11-20T14:26:31;6.85;;;3.55;;
44169;SDS011;29836;52.286;9.576;2022-11-20T14:28:57;7.10;;;3.70;;
44169;SDS011;29836;52.286;9.576;2022-11-20T14:31:23;9.88;;;4.70;;
44169;SDS011;29836;52.286;9.576;2022-11-20T14:33:54;7.45;;;4.18;;
44169;SDS011;29836;52.286;9.576;2022-11-20T14:36:21;9.45;;;4.35;;
44169;SDS011;29836;52.286;9.576;2022-11-20T14:38:48;12.15;;;4.53;;
44169;SDS011;29836;52.286;9.576;2022-11-20T14:41:18;8.07;;;4.25;;
44169;SDS011;29836;52.286;9.576;2022-11-20T14:43:58;7.45;;;3.92;;
44169;SDS011;29836;52.286;9.576;2022-11-20T14:46:25;8.25;;;4.18;;
44169;SDS011;29836;52.286;9.576;2022-11-20T14:48:56;9.02;;;4.22;;
44169;SDS011;29836;52.286;9.576;2022-11-20T14:51:38;6.75;;;4.03;;
44169;SDS011;29836;52.286;9.576;2022-11-20T14:56:38;9.18;;;4.38;;
44169;SDS011;29836;52.286;9.576;2022-11-20T14:59:04;11.10;;;5.13;;
44169;SDS011;29836;52.286;9.576;2022-11-20T15:01:30;8.93;;;4.40;;
44169;SDS011;29836;52.286;9.576;2022-11-20T15:06:35;13.07;;;7.45;;
44169;SDS011;29836;52.286;9.576;2022-11-20T15:09:02;16.85;;;7.72;;
44169;SDS011;29836;52.286;9.576;2022-11-20T15:11:30;16.80;;;8.60;;
44169;SDS011;29836;52.286;9.576;2022-11-20T15:14:06;21.23;;;9.90;;
44169;SDS011;29836;52.286;9.576;2022-11-20T15:16:34;26.60;;;9.27;;
44169;SDS011;29836;52.286;9.576;2022-11-20T15:18:59;17.98;;;7.13;;
44169;SDS011;29836;52.286;9.576;2022-11-20T15:21:27;14.63;;;6.32;;
44169;SDS011;29836;52.286;9.576;2022-11-20T15:23:52;11.30;;;5.15;;
44169;SDS011;29836;52.286;9.576;2022-11-20T15:26:23;11.93;;;5.65;;
44169;SDS011;29836;52.286;9.576;2022-11-20T15:28:51;13.07;;;6.80;;
44169;SDS011;29836;52.286;9.576;2022-11-20T15:31:18;13.60;;;6.45;;
44169;SDS011;29836;52.286;9.576;2022-11-20T15:33:45;11.05;;;5.65;;
44169;SDS011;29836;52.286;9.576;2022-11-20T15:36:11;14.23;;;6.43;;
44169;SDS011;29836;52.286;9.576;2022-11-20T15:38:37;12.30;;;6.70;;
44169;SDS011;29836;52.286;9.576;2022-11-20T15:41:03;13.95;;;6.28;;
44169;SDS011;29836;52.286;9.576;2022-11-20T15:43:28;15.98;;;7.28;;
44169;SDS011;29836;52.286;9.576;2022-11-20T15:46:02;17.55;;;8.32;;
44169;SDS011;29836;52.286;9.576;2022-11-20T15:51:32;15.98;;;6.97;;
44169;SDS011;29836;52.286;9.576;2022-11-20T15:54:00;19.98;;;8.25;;
44169;SDS011;29836;52.286;9.576;2022-11-20T15:56:26;15.90;;;8.45;;
44169;SDS011;29836;52.286;9.576;2022-11-20T15:58:52;14.52;;;7.80;;
44169;SDS011;29836;52.286;9.576;2022-11-20T16:01:19;13.55;;;6.53;;
44169;SDS011;29836;52.286;9.576;2022-11-20T16:03:46;15.10;;;7.80;;
44169;SDS011;29836;52.286;9.576;2022-11-20T16:06:12;19.85;;;8.30;;
44169;SDS011;29836;52.286;9.576;2022-11-20T16:08:38;12.52;;;7.22;;
44169;SDS011;29836;52.286;9.576;2022-11-20T16:11:04;10.63;;;6.25;;
44169;SDS011;29836;52.286;9.576;2022-11-20T16:13:30;14.43;;;6.25;;
44169;SDS011;29836;52.286;9.576;2022-11-20T16:18:55;14.93;;;7.57;;
44169;SDS011;29836;52.286;9.576;2022-11-20T16:21:21;13.30;;;6.55;;
44169;SDS011;29836;52.286;9.576;2022-11-20T16:23:52;17.30;;;6.97;;
44169;SDS011;29836;52.286;9.576;2022-11-20T16:26:17;12.48;;;6.57;;
44169;SDS011;29836;52.286;9.576;2022-11-20T16:28:43;12.20;;;5.90;;
44169;SDS011;29836;52.286;9.576;2022-11-20T16:31:10;14.07;;;7.97;;
44169;SDS011;29836;52.286;9.576;2022-11-20T16:33:39;18.25;;;7.70;;
44169;SDS011;29836;52.286;9.576;2022-11-20T16:38:34;16.02;;;7.72;;
44169;SDS011;29836;52.286;9.576;2022-11-20T16:41:01;24.75;;;9.48;;
44169;SDS011;29836;52.286;9.576;2022-11-20T16:43:26;20.85;;;8.88;;
44169;SDS011;29836;52.286;9.576;2022-11-20T16:45:52;16.55;;;8.75;;